Time;durP1;ratioP1;P1;durP2;ratioP2;P2;SDS_P1;SDS_P2;PMS_P1;PMS_P2;Temp;Humidity;BMP_temperature;BMP_pressure;BME280_temperature;BME280_humidity;BME280_pressure;Samples;Min_cycle;Max_cycle;Signal;HPM_P1;HPM_P2
2023/02/05 00:00:16;;;;;;;;;;;;;;;19.89;32.35;97471.59;10417002;28;2437;-55
2023/02/05 00:05:17;;;;;;;;;;;;;;;19.87;32.60;97465.78;10412149;28;2056;-52
2023/02/05 00:10:17;;;;;;;;;;;;;;;19.85;32.49;97466.00;10413147;28;2836;-53
2023/02/05 00:15:17;;;;;;;;;;;;;;;19.83;32.42;97467.25;10423800;28;2342;-52
2023/02/05 00:20:17;;;;;;;;;;;;;;;19.81;32.44;97458.78;10413817;28;2850;-54
2023/02/05 00:25:18;;;;;;;;;;;;;;;19.78;32.40;97459.25;10419472;28;2867;-54
2023/02/05 00:30:18;;;;;;;;;;;;;;;19.77;32.39;97460.28;10417235;28;2478;-52
2023/02/05 00:35:18;;;;;;;;;;;;;;;19.75;32.12;97459.69;10417192;28;2883;-53
2023/02/05 00:40:18;;;;;;;;;;;;;;;19.73;32.27;97459.13;10421442;28;2065;-51
2023/02/05 00:45:19;;;;;;;;;;;;;;;19.70;32.44;97472.75;10422146;28;2445;-53
2023/02/05 00:50:19;;;;;;;;;;;;;;;19.68;32.30;97469.53;10419056;28;2954;-54
2023/02/05 00:55:20;;;;;;;;;;;;;;;19.66;32.51;97482.13;10415533;28;2839;-55
2023/02/05 01:00:20;;;;;;;;;;;;;;;19.64;32.64;97484.16;10417945;28;2858;-54
2023/02/05 01:05:20;;;;;;;;;;;;;;;19.63;32.39;97479.91;10416961;28;2980;-55
2023/02/05 01:10:21;;;;;;;;;;;;;;;19.60;32.52;97475.13;10420885;28;2512;-53
2023/02/05 01:15:21;;;;;;;;;;;;;;;19.58;32.40;97466.66;10421251;28;3021;-55
2023/02/05 01:20:21;;;;;;;;;;;;;;;19.56;32.40;97460.81;10414257;28;2869;-53
2023/02/05 01:25:21;;;;;;;;;;;;;;;19.54;32.38;97462.88;10423234;28;2445;-53
2023/02/05 01:30:22;;;;;;;;;;;;;;;19.53;32.57;97467.34;10409297;28;2073;-53
2023/02/05 01:35:22;;;;;;;;;;;;;;;19.48;32.36;97457.47;10410729;28;2862;-52
2023/02/05 01:40:22;;;;;;;;;;;;;;;19.46;32.33;97456.09;10410065;28;2832;-53
2023/02/05 01:45:28;;;;;;;;;;;;;;;19.43;32.62;97465.22;10411564;28;2430;-54
2023/02/05 01:50:30;;;;;;;;;;;;;;;19.42;32.41;97455.75;10416240;28;2460;-52
2023/02/05 01:55:30;;;;;;;;;;;;;;;19.41;32.33;97456.00;10414682;28;2908;-53
2023/02/05 02:00:30;;;;;;;;;;;;;;;19.39;32.41;97456.19;10416288;28;2355;-52
2023/02/05 02:05:31;;;;;;;;;;;;;;;19.37;32.39;97463.50;10415967;28;2057;-51
2023/02/05 02:10:31;;;;;;;;;;;;;;;19.35;32.30;97455.03;10418592;28;2444;-51
2023/02/05 02:15:31;;;;;;;;;;;;;;;19.33;32.30;97451.84;10397879;28;2070;-51
2023/02/05 02:20:32;;;;;;;;;;;;;;;19.32;32.32;97442.31;10398643;28;2458;-52
2023/02/05 02:25:46;;;;;;;;;;;;;;;19.30;32.38;97443.56;10447874;28;2494;-52
2023/02/05 02:30:51;;;;;;;;;;;;;;;19.28;32.22;97435.91;10455500;28;2081;-51
2023/02/05 02:36:00;;;;;;;;;;;;;;;19.25;32.38;97431.09;10457167;28;2876;-52
2023/02/05 02:41:13;;;;;;;;;;;;;;;19.24;32.40;97424.25;10455597;28;2230;-52
2023/02/05 02:46:27;;;;;;;;;;;;;;;19.22;32.28;97417.59;10453001;28;2758;-54
2023/02/05 02:51:28;;;;;;;;;;;;;;;19.19;32.30;97410.97;10456720;28;2375;-51
2023/02/05 02:56:28;;;;;;;;;;;;;;;19.18;32.29;97409.38;10457727;28;2898;-54
2023/02/05 03:01:31;;;;;;;;;;;;;;;19.14;32.24;97416.09;10456205;28;2372;-52
2023/02/05 03:06:31;;;;;;;;;;;;;;;19.13;32.38;97411.03;10454138;28;2478;-53
2023/02/05 03:11:31;;;;;;;;;;;;;;;19.11;32.42;97413.91;10464340;28;2746;-52
2023/02/05 03:16:32;;;;;;;;;;;;;;;19.09;32.23;97410.69;10454084;28;2438;-52
2023/02/05 03:21:39;;;;;;;;;;;;;;;19.08;32.35;97401.19;10441581;28;2407;-52
2023/02/05 03:26:40;;;;;;;;;;;;;;;19.06;32.34;97389.34;10400238;28;2022;-52
2023/02/05 03:31:53;;;;;;;;;;;;;;;19.04;32.23;97383.50;10420107;28;2843;-51
2023/02/05 03:36:57;;;;;;;;;;;;;;;19.02;32.02;97370.56;10407622;28;2852;-54
2023/02/05 03:42:00;;;;;;;;;;;;;;;19.01;32.17;97374.22;10413474;28;2874;-53
2023/02/05 03:47:05;;;;;;;;;;;;;;;18.99;32.16;97367.59;10414272;28;3006;-51
2023/02/05 03:52:09;;;;;;;;;;;;;;;18.96;32.19;97368.81;10410894;28;2026;-50
2023/02/05 03:57:13;;;;;;;;;;;;;;;18.94;31.97;97365.63;10427044;28;2869;-52
2023/02/05 04:02:13;;;;;;;;;;;;;;;18.93;32.12;97381.63;10420367;28;2406;-52
2023/02/05 04:07:13;;;;;;;;;;;;;;;18.91;32.14;97392.38;10416459;28;2121;-48
2023/02/05 04:12:13;;;;;;;;;;;;;;;18.88;32.15;97371.78;10403814;28;2895;-52
2023/02/05 04:17:14;;;;;;;;;;;;;;;18.88;32.01;97368.34;10419123;28;2477;-54
2023/02/05 04:22:14;;;;;;;;;;;;;;;18.86;32.09;97367.75;10412956;28;2115;-51
2023/02/05 04:27:14;;;;;;;;;;;;;;;18.83;32.04;97363.78;10420130;28;2066;-52
2023/02/05 04:32:15;;;;;;;;;;;;;;;18.80;31.99;97364.22;10417643;28;2061;-48
2023/02/05 04:37:15;;;;;;;;;;;;;;;18.79;31.92;97354.75;10424328;28;2067;-51
2023/02/05 04:42:15;;;;;;;;;;;;;;;18.78;32.02;97350.50;10416836;28;2815;-53
2023/02/05 04:47:15;;;;;;;;;;;;;;;18.77;31.87;97343.66;10423300;28;2012;-51
2023/02/05 04:52:16;;;;;;;;;;;;;;;18.75;32.04;97348.34;10412055;28;2401;-51
2023/02/05 04:57:16;;;;;;;;;;;;;;;18.72;31.82;97346.13;10432458;28;2445;-52
2023/02/05 05:02:16;;;;;;;;;;;;;;;18.72;31.82;97350.59;10414628;28;2906;-49
2023/02/05 05:07:16;;;;;;;;;;;;;;;18.69;31.80;97347.38;10413989;28;2413;-49
2023/02/05 05:12:17;;;;;;;;;;;;;;;18.71;31.73;97338.50;10414473;28;2323;-52
2023/02/05 05:17:17;;;;;;;;;;;;;;;18.74;31.49;97336.22;10405329;28;2838;-53
2023/02/05 05:22:17;;;;;;;;;;;;;;;18.81;31.44;97334.31;10415830;28;2624;-54
2023/02/05 05:27:17;;;;;;;;;;;;;;;18.88;31.37;97335.00;10414656;28;2488;-54
2023/02/05 05:32:18;;;;;;;;;;;;;;;18.96;31.09;97337.28;10421245;28;2851;-54
2023/02/05 05:37:18;;;;;;;;;;;;;;;19.02;31.07;97340.88;10422235;28;2449;-51
2023/02/05 05:47:37;;;;;;;;;;;;;;;19.17;30.97;97321.00;10413269;28;2958;-52
2023/02/05 05:52:37;;;;;;;;;;;;;;;19.26;30.63;97335.44;10410331;28;2330;-54
2023/02/05 05:57:38;;;;;;;;;;;;;;;19.31;30.51;97335.53;10410947;28;1997;-54
2023/02/05 06:02:38;;;;;;;;;;;;;;;19.36;30.37;97327.00;10413681;28;2982;-51
2023/02/05 06:07:39;;;;;;;;;;;;;;;19.41;30.31;97332.38;10424093;28;2478;-51
2023/02/05 06:12:39;;;;;;;;;;;;;;;19.45;30.34;97326.41;10420274;28;2783;-50
2023/02/05 06:17:39;;;;;;;;;;;;;;;19.53;30.45;97333.19;10422031;28;2088;-50
2023/02/05 06:22:39;;;;;;;;;;;;;;;19.57;30.48;97339.59;10413263;28;2464;-51
2023/02/05 06:27:40;;;;;;;;;;;;;;;19.66;31.02;97334.78;10412801;28;2880;-53
2023/02/05 06:32:40;;;;;;;;;;;;;;;19.75;31.59;97347.38;10422915;28;2828;-49
2023/02/05 06:37:40;;;;;;;;;;;;;;;19.85;31.82;97355.47;10419960;28;2432;-49
2023/02/05 06:42:40;;;;;;;;;;;;;;;19.89;32.16;97359.25;10402665;28;2904;-51
2023/02/05 06:47:41;;;;;;;;;;;;;;;19.95;31.91;97345.16;10407885;28;2995;-51
2023/02/05 06:52:41;;;;;;;;;;;;;;;19.99;31.95;97358.69;10423920;28;2115;-49
2023/02/05 06:57:41;;;;;;;;;;;;;;;20.04;33.13;97350.88;10415717;28;2828;-49
2023/02/05 07:02:42;;;;;;;;;;;;;;;20.07;32.33;97360.97;10408225;28;2064;-52
2023/02/05 07:07:42;;;;;;;;;;;;;;;20.08;31.83;97352.00;10413530;28;2390;-49
2023/02/05 07:12:42;;;;;;;;;;;;;;;20.03;31.73;97351.94;10420791;28;2118;-53
2023/02/05 07:17:42;;;;;;;;;;;;;;;20.04;31.81;97353.50;10423385;28;2465;-53
2023/02/05 07:22:43;;;;;;;;;;;;;;;20.08;31.15;97359.91;10436789;28;2804;-52
2023/02/05 07:27:43;;;;;;;;;;;;;;;20.07;30.95;97345.94;10418053;28;2898;-53
2023/02/05 07:32:43;;;;;;;;;;;;;;;20.07;30.61;97345.16;10433999;28;2843;-54
2023/02/05 07:37:44;;;;;;;;;;;;;;;20.08;30.28;97352.00;10431462;28;2023;-54
2023/02/05 07:42:44;;;;;;;;;;;;;;;20.04;30.71;97345.63;10401705;28;2437;-53
2023/02/05 07:47:44;;;;;;;;;;;;;;;20.04;31.47;97353.50;10431420;28;2886;-51
2023/02/05 07:52:44;;;;;;;;;;;;;;;20.12;31.22;97363.69;10431512;28;2452;-54
2023/02/05 07:57:45;;;;;;;;;;;;;;;20.14;31.48;97359.78;10422268;28;2046;-54
2023/02/05 08:02:46;;;;;;;;;;;;;;;20.17;31.10;97358.53;10428335;28;2449;-50
2023/02/05 08:07:46;;;;;;;;;;;;;;;20.16;31.06;97352.47;10427407;28;3290;-50
2023/02/05 08:12:46;;;;;;;;;;;;;;;20.17;31.10;97361.94;10431267;28;2010;-54
2023/02/05 08:17:46;;;;;;;;;;;;;;;20.15;31.32;97363.22;10425384;28;2096;-49
2023/02/05 08:22:47;;;;;;;;;;;;;;;20.14;31.35;97369.50;10430754;28;2851;-51
2023/02/05 08:27:48;;;;;;;;;;;;;;;20.10;31.27;97361.28;10426261;28;2812;-54
2023/02/05 08:32:48;;;;;;;;;;;;;;;20.08;31.33;97354.66;10424643;28;2439;-50
2023/02/05 08:37:48;;;;;;;;;;;;;;;20.05;31.38;97344.59;10428986;28;2863;-51
2023/02/05 08:42:51;;;;;;;;;;;;;;;20.02;31.55;97334.50;10429962;28;2456;-54
2023/02/05 08:47:51;;;;;;;;;;;;;;;19.99;31.70;97333.13;10404564;28;2983;-51
2023/02/05 08:52:52;;;;;;;;;;;;;;;19.96;31.56;97322.28;10431476;28;2405;-50
2023/02/05 08:57:52;;;;;;;;;;;;;;;19.92;31.76;97306.16;10425651;28;2867;-51
2023/02/05 09:02:52;;;;;;;;;;;;;;;19.89;32.14;97305.81;10437436;28;2832;-49
2023/02/05 09:07:53;;;;;;;;;;;;;;;19.85;32.25;97294.16;10438595;28;2023;-51
2023/02/05 09:12:53;;;;;;;;;;;;;;;19.83;32.13;97291.75;10439330;28;2441;-53
2023/02/05 09:17:54;;;;;;;;;;;;;;;19.81;32.08;97277.22;10434795;28;2867;-51
2023/02/05 09:22:54;;;;;;;;;;;;;;;19.78;32.24;97275.88;10402468;28;1070829;-50
2023/02/05 09:27:54;;;;;;;;;;;;;;;19.74;32.09;97279.97;10427393;28;2409;-52
2023/02/05 09:32:54;;;;;;;;;;;;;;;19.73;32.53;97273.13;10413425;28;2382;-51
2023/02/05 09:37:55;;;;;;;;;;;;;;;19.71;32.40;97266.50;10441952;28;2442;-53
2023/02/05 09:42:58;;;;;;;;;;;;;;;19.69;32.39;97271.19;10422686;28;2819;-50
2023/02/05 09:48:06;;;;;;;;;;;;;;;19.69;32.46;97273.81;10432035;28;2865;-48
2023/02/05 09:53:08;;;;;;;;;;;;;;;19.67;32.40;97263.53;10436320;28;2528;-53
2023/02/05 09:58:13;;;;;;;;;;;;;;;19.65;32.37;97262.16;10407546;28;2115;-52
2023/02/05 10:03:23;;;;;;;;;;;;;;;19.65;32.49;97246.38;10411494;28;2809;-49
2023/02/05 10:08:25;;;;;;;;;;;;;;;19.63;32.37;97228.19;10425465;28;2436;-53
2023/02/05 10:13:52;;;;;;;;;;;;;;;19.62;32.29;97213.44;10427628;28;2851;-52
2023/02/05 10:18:56;;;;;;;;;;;;;;;19.60;32.33;97202.34;10419207;28;2374;-52
2023/02/05 10:24:11;;;;;;;;;;;;;;;19.57;32.26;97196.75;10444813;28;2402;-52
2023/02/05 10:29:23;;;;;;;;;;;;;;;19.54;32.17;97194.59;10461616;28;2891;-51
2023/02/05 10:34:29;;;;;;;;;;;;;;;19.55;32.32;97191.72;10465775;28;2895;-50
2023/02/05 10:39:29;;;;;;;;;;;;;;;19.53;32.20;97174.56;10464229;28;2888;-51
2023/02/05 10:44:31;;;;;;;;;;;;;;;19.45;32.33;97168.63;10454126;28;2819;-49
2023/02/05 10:49:41;;;;;;;;;;;;;;;19.42;32.24;97166.47;10456443;28;2422;-51
2023/02/05 10:54:41;;;;;;;;;;;;;;;19.39;32.20;97153.00;10466595;28;2896;-53
2023/02/05 10:59:55;;;;;;;;;;;;;;;19.36;32.30;97162.16;10467454;28;2417;-49
2023/02/05 11:04:55;;;;;;;;;;;;;;;19.32;32.29;97152.28;10458241;28;2975;-51
2023/02/05 11:09:56;;;;;;;;;;;;;;;19.28;32.52;97141.44;10465114;28;2439;-50
2023/02/05 11:14:58;;;;;;;;;;;;;;;19.26;32.45;97143.50;10456035;28;2809;-51
2023/02/05 11:19:59;;;;;;;;;;;;;;;19.23;32.45;97138.69;10460789;28;1990;-51
2023/02/05 11:25:16;;;;;;;;;;;;;;;19.21;32.68;97138.13;10418039;28;2074;-49
2023/02/05 11:30:16;;;;;;;;;;;;;;;19.16;32.61;97137.25;10413643;28;2889;-52
2023/02/05 11:35:18;;;;;;;;;;;;;;;19.14;32.55;97145.38;10413490;28;2050;-52
2023/02/05 11:40:19;;;;;;;;;;;;;;;19.11;32.64;97140.56;10420203;28;2445;-47
2023/02/05 11:45:21;;;;;;;;;;;;;;;19.08;32.65;97151.50;10415173;28;2022;-50
2023/02/05 11:50:25;;;;;;;;;;;;;;;19.04;32.84;97145.13;10421744;28;3242;-53
2023/02/05 11:55:30;;;;;;;;;;;;;;;19.02;32.81;97155.06;10396305;28;2022;-49
2023/02/05 12:00:31;;;;;;;;;;;;;;;19.01;32.73;97145.59;10421393;28;2026;-51
2023/02/05 12:05:32;;;;;;;;;;;;;;;18.99;32.89;97147.66;10396493;28;2776;-51
2023/02/05 12:10:56;;;;;;;;;;;;;;;18.97;32.86;97147.09;10398542;28;2390;-52
2023/02/05 12:16:02;;;;;;;;;;;;;;;19.00;33.01;97149.22;10379552;28;2435;-53
2023/02/05 12:21:21;;;;;;;;;;;;;;;19.04;32.65;97134.59;10408568;28;2848;-52
2023/02/05 12:26:33;;;;;;;;;;;;;;;19.06;32.55;97132.53;10423581;28;2476;-49
2023/02/05 12:31:53;;;;;;;;;;;;;;;19.08;32.35;97130.50;10403208;28;2864;-51
2023/02/05 12:37:11;;;;;;;;;;;;;;;19.13;32.26;97127.97;10411968;28;2878;-53
2023/02/05 12:42:14;;;;;;;;;;;;;;;19.16;32.94;97122.28;10404662;28;2119;-52
2023/02/05 12:47:23;;;;;;;;;;;;;;;19.30;33.46;97120.97;10423505;28;2432;-54
2023/02/05 12:52:23;;;;;;;;;;;;;;;19.37;34.35;97113.00;10414436;28;2941;-48
2023/02/05 12:57:40;;;;;;;;;;;;;;;19.39;32.98;97114.34;10420959;28;2418;-49
2023/02/05 13:03:07;;;;;;;;;;;;;;;19.39;32.88;97111.72;10403460;28;2362;-51
2023/02/05 13:08:19;;;;;;;;;;;;;;;19.44;32.81;97111.03;10400004;28;3042;-54
2023/02/05 13:13:24;;;;;;;;;;;;;;;19.51;33.07;97108.25;10420580;28;2898;-51
2023/02/05 13:18:25;;;;;;;;;;;;;;;19.55;33.42;97099.69;10408194;28;2527;-52
2023/02/05 13:28:48;;;;;;;;;;;;;;;19.61;33.24;97111.09;10423035;28;1990;-52
2023/02/05 13:33:48;;;;;;;;;;;;;;;19.66;33.33;97105.94;10440351;28;2435;-53
2023/02/05 13:38:58;;;;;;;;;;;;;;;19.70;33.07;97107.06;10407855;28;2092;-52
2023/02/05 13:44:01;;;;;;;;;;;;;;;19.74;32.96;97110.81;10422825;28;2864;-49
2023/02/05 13:49:08;;;;;;;;;;;;;;;19.78;32.93;97104.03;10420518;28;2397;-52
2023/02/05 13:54:26;;;;;;;;;;;;;;;19.82;32.81;97099.91;10438445;28;2028;-52
2023/02/05 13:59:36;;;;;;;;;;;;;;;19.83;32.04;97112.00;10420272;28;2440;-47
2023/02/05 14:04:38;;;;;;;;;;;;;;;19.82;31.69;97107.81;10392872;28;2386;-53
2023/02/05 14:09:42;;;;;;;;;;;;;;;19.77;31.42;97094.53;10421400;28;2485;-51
2023/02/05 14:14:42;;;;;;;;;;;;;;;19.78;31.54;97093.53;10418847;28;1978;-51
2023/02/05 14:19:45;;;;;;;;;;;;;;;19.74;31.90;97100.28;10417467;28;2538;-53
2023/02/05 14:24:49;;;;;;;;;;;;;;;19.85;31.55;97094.16;10420701;28;2843;-51
2023/02/05 14:29:50;;;;;;;;;;;;;;;19.95;31.56;97089.06;10440356;28;2369;-53
2023/02/05 14:34:58;;;;;;;;;;;;;;;20.03;31.68;97088.72;10418843;28;2452;-55
2023/02/05 14:39:59;;;;;;;;;;;;;;;20.14;32.19;97085.19;10403099;28;2079;-49
2023/02/05 14:44:59;;;;;;;;;;;;;;;20.16;31.59;97078.66;10410772;28;2452;-51
2023/02/05 14:50:01;;;;;;;;;;;;;;;20.18;31.56;97075.78;10414631;28;3026;-52
2023/02/05 14:55:06;;;;;;;;;;;;;;;20.24;31.39;97082.75;10423489;28;2458;-53
2023/02/05 15:00:20;;;;;;;;;;;;;;;20.28;31.31;97075.97;10419297;28;2165;-50
2023/02/05 15:05:35;;;;;;;;;;;;;;;20.32;31.04;97081.56;10403447;28;2075;-47
2023/02/05 15:10:41;;;;;;;;;;;;;;;20.33;31.17;97086.59;10414244;28;3014;-48
2023/02/05 15:15:54;;;;;;;;;;;;;;;20.37;31.43;97077.16;10444728;28;2887;-48
2023/02/05 15:20:55;;;;;;;;;;;;;;;20.40;31.40;97078.53;10406653;28;2050;-48
2023/02/05 15:26:03;;;;;;;;;;;;;;;20.43;31.23;97075.41;10404924;28;2823;-48
2023/02/05 15:31:17;;;;;;;;;;;;;;;20.43;31.17;97086.75;10418974;28;2453;-46
2023/02/05 15:36:29;;;;;;;;;;;;;;;20.46;31.24;97096.00;10420580;28;2889;-50
2023/02/05 15:41:29;;;;;;;;;;;;;;;20.48;31.33;97097.38;10396974;28;2880;-49
2023/02/05 15:46:30;;;;;;;;;;;;;;;20.50;31.01;97099.75;10424592;28;2039;-53
2023/02/05 15:51:30;;;;;;;;;;;;;;;20.49;31.14;97112.13;10418296;28;2898;-51
2023/02/05 15:56:35;;;;;;;;;;;;;;;20.50;31.20;97102.38;10410565;28;2358;-54
2023/02/05 16:01:52;;;;;;;;;;;;;;;20.50;30.93;97105.03;10406047;28;2399;-52
2023/02/05 16:06:52;;;;;;;;;;;;;;;20.49;31.22;97104.22;10402637;28;2926;-52
2023/02/05 16:11:54;;;;;;;;;;;;;;;20.50;31.26;97113.72;10439683;28;2013;-53
2023/02/05 16:16:57;;;;;;;;;;;;;;;20.50;31.28;97113.72;10421080;28;2485;-50
2023/02/05 16:21:59;;;;;;;;;;;;;;;20.49;31.15;97112.13;10421798;28;2429;-48
2023/02/05 16:27:00;;;;;;;;;;;;;;;20.51;31.10;97120.59;10403825;28;2883;-53
2023/02/05 16:32:05;;;;;;;;;;;;;;;20.53;31.12;97115.88;10426671;28;2497;-51
2023/02/05 16:37:06;;;;;;;;;;;;;;;20.55;31.09;97118.25;10416708;28;2046;-50
2023/02/05 16:42:13;;;;;;;;;;;;;;;20.57;31.26;97114.34;10422778;28;2405;-51
2023/02/05 16:47:14;;;;;;;;;;;;;;;20.56;31.46;97123.31;10429429;28;2414;-51
2023/02/05 16:52:24;;;;;;;;;;;;;;;20.56;31.74;97125.13;10415612;28;2246;-51
2023/02/05 16:57:25;;;;;;;;;;;;;;;20.55;31.39;97129.59;10426130;28;2479;-50
2023/02/05 17:02:34;;;;;;;;;;;;;;;20.51;31.77;97125.84;10424625;28;2979;-53
2023/02/05 17:07:34;;;;;;;;;;;;;;;20.50;31.86;97126.91;10425295;28;3016;-51
2023/02/05 17:12:36;;;;;;;;;;;;;;;20.51;31.78;97131.13;10408987;28;2422;-53
2023/02/05 17:17:43;;;;;;;;;;;;;;;20.51;31.46;97128.47;10417533;28;2026;-53
2023/02/05 17:22:58;;;;;;;;;;;;;;;20.48;31.76;97117.63;10419847;28;2864;-47
2023/02/05 17:28:00;;;;;;;;;;;;;;;20.49;31.92;97116.59;10417866;28;2520;-53
2023/02/05 17:33:04;;;;;;;;;;;;;;;20.46;31.86;97123.16;10420243;28;2456;-50
2023/02/05 17:38:04;;;;;;;;;;;;;;;20.48;31.92;97128.19;10418472;28;2898;-51
2023/02/05 17:43:04;;;;;;;;;;;;;;;20.51;32.47;97139.03;10420725;28;2429;-50
2023/02/05 17:48:05;;;;;;;;;;;;;;;20.56;33.25;97128.56;10415908;28;2883;-51
2023/02/05 17:53:05;;;;;;;;;;;;;;;20.56;32.47;97133.84;10416565;28;2955;-50
2023/02/05 17:58:06;;;;;;;;;;;;;;;20.57;32.61;97138.06;10412008;28;2962;-51
2023/02/05 18:03:06;;;;;;;;;;;;;;;20.56;32.16;97136.47;10413398;28;2500;-50
2023/02/05 18:08:06;;;;;;;;;;;;;;;20.56;33.01;97127.78;10405381;28;2385;-50
2023/02/05 18:13:07;;;;;;;;;;;;;;;20.55;33.09;97111.16;10403792;28;2926;-52
2023/02/05 18:18:07;;;;;;;;;;;;;;;20.53;33.16;97115.06;10420605;28;2058;-53
2023/02/05 18:23:07;;;;;;;;;;;;;;;20.52;33.20;97126.66;10412797;28;2466;-53
2023/02/05 18:28:07;;;;;;;;;;;;;;;20.47;33.21;97122.09;10420686;28;3120;-50
2023/02/05 18:33:08;;;;;;;;;;;;;;;20.47;33.30;97123.94;10416529;28;3210;-51
2023/02/05 18:38:08;;;;;;;;;;;;;;;20.43;33.17;97131.53;10414243;28;2261;-50
2023/02/05 18:43:08;;;;;;;;;;;;;;;20.50;34.43;97131.38;10419277;28;3238;-54
2023/02/05 18:48:08;;;;;;;;;;;;;;;20.50;34.48;97126.09;10425943;28;3154;-54
2023/02/05 18:53:09;;;;;;;;;;;;;;;20.50;34.56;97129.53;10409398;28;2257;-50
2023/02/05 18:58:09;;;;;;;;;;;;;;;20.52;34.01;97124.81;10413050;28;2284;-55
2023/02/05 19:03:10;;;;;;;;;;;;;;;20.54;33.87;97116.69;10418906;28;2333;-52
2023/02/05 19:08:10;;;;;;;;;;;;;;;20.56;33.14;97104.06;10424175;28;2299;-51
2023/02/05 19:13:10;;;;;;;;;;;;;;;20.58;33.46;97110.69;10437309;28;2790;-54
2023/02/05 19:18:10;;;;;;;;;;;;;;;20.68;34.19;97121.38;10427294;28;2387;-52
2023/02/05 19:23:11;;;;;;;;;;;;;;;20.74;34.23;97125.69;10444862;28;2645;-48
2023/02/05 19:28:11;;;;;;;;;;;;;;;20.82;33.97;97138.44;10473438;28;2672;-52
2023/02/05 19:33:11;;;;;;;;;;;;;;;20.86;33.92;97139.56;10479037;28;2711;-52
2023/02/05 19:38:12;;;;;;;;;;;;;;;20.77;32.99;97153.41;10461799;28;2737;-54
2023/02/05 19:43:16;;;;;;;;;;;;;;;20.73;32.78;97160.97;10463820;28;2744;-53
2023/02/05 19:48:16;;;;;;;;;;;;;;;20.77;32.37;97161.31;10474843;28;2288;-50
2023/02/05 19:53:17;;;;;;;;;;;;;;;20.75;32.47;97163.38;10465354;28;2693;-51
2023/02/05 19:58:17;;;;;;;;;;;;;;;20.76;31.93;97163.13;10462458;28;2661;-49
2023/02/05 20:03:17;;;;;;;;;;;;;;;20.74;31.53;97170.47;10459190;28;2304;-54
2023/02/05 20:08:18;;;;;;;;;;;;;;;20.75;31.35;97174.69;10468934;28;3316;-53
2023/02/05 20:13:18;;;;;;;;;;;;;;;20.75;30.60;97181.81;10469558;28;3102;-47
2023/02/05 20:18:18;;;;;;;;;;;;;;;20.74;30.59;97182.84;10463039;28;2266;-53
2023/02/05 20:23:19;;;;;;;;;;;;;;;20.72;30.76;97185.72;10437899;28;3363;-50
2023/02/05 20:28:20;;;;;;;;;;;;;;;20.72;30.68;97191.00;10422442;28;3392;-54
2023/02/05 20:33:20;;;;;;;;;;;;;;;20.73;29.96;97197.06;10417833;28;3194;-50
2023/02/05 20:38:20;;;;;;;;;;;;;;;20.70;30.81;97193.09;10417707;28;2248;-51
2023/02/05 20:43:20;;;;;;;;;;;;;;;20.68;30.40;97200.44;10415315;28;2708;-52
2023/02/05 20:48:21;;;;;;;;;;;;;;;20.67;29.92;97204.09;10418981;28;2775;-51
2023/02/05 20:53:21;;;;;;;;;;;;;;;20.63;30.68;97215.38;10422126;28;3275;-52
2023/02/05 20:58:21;;;;;;;;;;;;;;;20.61;30.93;97217.44;10422633;28;3238;-54
2023/02/05 21:03:22;;;;;;;;;;;;;;;20.58;30.75;97237.16;10417015;28;2715;-54
2023/02/05 21:08:22;;;;;;;;;;;;;;;20.56;30.95;97233.94;10420233;28;3135;-50
2023/02/05 21:13:22;;;;;;;;;;;;;;;20.53;31.24;97255.47;10424622;28;2540;-47
2023/02/05 21:18:22;;;;;;;;;;;;;;;20.51;31.12;97272.56;10415390;28;2758;-49
2023/02/05 21:23:23;;;;;;;;;;;;;;;20.48;30.95;97281.75;10421398;28;2684;-49
2023/02/05 21:28:23;;;;;;;;;;;;;;;20.46;31.86;97291.72;10412129;28;2727;-49
2023/02/05 21:33:25;;;;;;;;;;;;;;;20.43;31.80;97300.09;10426910;28;2808;-51
2023/02/05 21:38:29;;;;;;;;;;;;;;;20.38;31.77;97310.50;10430012;28;3166;-50
2023/02/05 21:43:29;;;;;;;;;;;;;;;20.35;31.61;97304.91;10429666;28;3198;-50
2023/02/05 21:48:30;;;;;;;;;;;;;;;20.30;31.71;97313.53;10421251;28;2323;-50
2023/02/05 21:53:30;;;;;;;;;;;;;;;20.25;31.81;97319.50;10430037;28;2400;-51
2023/02/05 21:58:31;;;;;;;;;;;;;;;20.24;31.77;97322.34;10432391;28;2723;-52
2023/02/05 22:03:31;;;;;;;;;;;;;;;20.19;31.74;97316.97;10429440;28;3215;-52
2023/02/05 22:08:32;;;;;;;;;;;;;;;20.14;31.98;97322.13;10426762;28;3166;-54
2023/02/05 22:13:33;;;;;;;;;;;;;;;20.09;31.93;97322.81;10414004;28;3507;-50
2023/02/05 22:18:33;;;;;;;;;;;;;;;20.07;31.76;97330.16;10414003;28;2297;-50
2023/02/05 22:23:33;;;;;;;;;;;;;;;20.03;31.96;97334.28;10406037;28;2851;-52
2023/02/05 22:28:34;;;;;;;;;;;;;;;19.99;31.88;97333.13;10416581;28;2735;-52
2023/02/05 22:33:34;;;;;;;;;;;;;;;19.96;32.02;97333.63;10418585;28;3167;-49
2023/02/05 22:38:35;;;;;;;;;;;;;;;19.93;31.89;97335.91;10423408;28;3161;-51
2023/02/05 22:43:35;;;;;;;;;;;;;;;19.90;31.91;97341.63;10416103;28;2803;-49
2023/02/05 22:48:36;;;;;;;;;;;;;;;19.86;32.06;97345.75;10412182;28;2376;-52
2023/02/05 22:53:36;;;;;;;;;;;;;;;19.82;32.22;97345.44;10409797;28;2665;-52
2023/02/05 22:58:37;;;;;;;;;;;;;;;19.81;32.00;97350.91;10409566;28;2320;-49
2023/02/05 23:03:37;;;;;;;;;;;;;;;19.77;32.16;97352.38;10413120;28;2728;-48
2023/02/05 23:08:38;;;;;;;;;;;;;;;19.74;31.96;97353.63;10417259;28;2693;-52
2023/02/05 23:13:38;;;;;;;;;;;;;;;19.71;32.17;97355.94;10418486;28;2724;-50
2023/02/05 23:18:39;;;;;;;;;;;;;;;19.68;32.08;97357.19;10414197;28;2316;-52
2023/02/05 23:23:39;;;;;;;;;;;;;;;19.64;32.08;97350.00;10412592;28;3106;-51
2023/02/05 23:28:39;;;;;;;;;;;;;;;19.63;32.10;97359.72;10421199;28;3278;-49
2023/02/05 23:33:40;;;;;;;;;;;;;;;19.62;32.07;97362.59;10417161;28;2323;-53
2023/02/05 23:38:40;;;;;;;;;;;;;;;19.59;31.89;97368.28;10407398;28;2712;-51
2023/02/05 23:43:40;;;;;;;;;;;;;;;19.56;31.97;97380.06;10415456;28;2677;-50
2023/02/05 23:48:40;;;;;;;;;;;;;;;19.54;31.96;97383.97;10405536;28;3166;-50
2023/02/05 23:53:41;;;;;;;;;;;;;;;19.52;31.96;97396.53;10405273;28;2721;-53
2023/02/05 23:58:41;;;;;;;;;;;;;;;19.49;32.07;97405.69;10414921;28;3174;-53
